Time;durP1;ratioP1;P1;durP2;ratioP2;P2;SDS_P1;SDS_P2;PMS_P1;PMS_P2;Temp;Humidity;BMP_temperature;BMP_pressure;BME280_temperature;BME280_humidity;BME280_pressure;Samples;Min_cycle;Max_cycle;Signal;HPM_P1;HPM_P2
2021/03/13 04:16:15;;;;;;;10.87;2.53;;;8.10;89.00;;;;;;5111606;27;20327;-72
2021/03/13 04:18:41;;;;;;;10.23;2.30;;;8.00;90.00;;;;;;5093431;28;20119;-72
2021/03/13 04:21:07;;;;;;;12.45;2.20;;;8.00;90.00;;;;;;5093441;28;20103;-72
2021/03/13 04:23:34;;;;;;;8.98;1.83;;;8.00;90.20;;;;;;5092983;28;20028;-73
2021/03/13 04:26:00;;;;;;;10.27;2.80;;;8.00;90.20;;;;;;5111451;28;20028;-73
2021/03/13 04:28:25;;;;;;;8.68;2.90;;;8.00;90.50;;;;;;5093311;28;20454;-73
2021/03/13 04:30:51;;;;;;;10.88;2.85;;;8.00;90.90;;;;;;5111551;28;20026;-73
2021/03/13 04:33:17;;;;;;;11.30;3.50;;;8.00;90.90;;;;;;5092962;28;20047;-73
2021/03/13 04:35:43;;;;;;;11.60;3.10;;;7.90;91.30;;;;;;5093078;28;20085;-73
2021/03/13 04:38:08;;;;;;;16.13;4.18;;;7.90;91.20;;;;;;5110946;28;20381;-74
2021/03/13 04:40:34;;;;;;;11.20;3.65;;;7.90;91.60;;;;;;5110314;28;20446;-73
2021/03/13 04:42:59;;;;;;;14.63;3.80;;;7.90;91.40;;;;;;5092689;28;20020;-74
2021/03/13 04:45:25;;;;;;;15.18;3.63;;;7.90;91.10;;;;;;5109507;28;20067;-74
2021/03/13 04:47:51;;;;;;;14.53;3.30;;;7.90;91.10;;;;;;5111325;28;20032;-73
2021/03/13 04:50:19;;;;;;;11.57;3.25;;;7.90;91.50;;;;;;5093671;28;20357;-73
2021/03/13 04:52:45;;;;;;;10.00;2.38;;;8.00;91.20;;;;;;5093271;28;20016;-73
2021/03/13 04:55:11;;;;;;;10.07;2.08;;;8.00;91.50;;;;;;5093432;28;20034;-74
2021/03/13 04:57:36;;;;;;;13.43;2.27;;;7.90;91.80;;;;;;5111590;28;20027;-73
2021/03/13 05:00:07;;;;;;;13.25;2.03;;;7.90;91.60;;;;;;5092688;28;20369;-74
2021/03/13 05:02:33;;;;;;;8.38;1.48;;;7.90;91.70;;;;;;5110726;28;20027;-73
2021/03/13 05:04:58;;;;;;;15.93;1.87;;;7.80;92.10;;;;;;5075713;28;20028;-73
2021/03/13 05:07:24;;;;;;;11.77;2.30;;;7.70;92.30;;;;;;5110676;28;20507;-73
2021/03/13 05:09:50;;;;;;;11.30;1.90;;;7.70;92.60;;;;;;5110362;28;20081;-75
2021/03/13 05:12:15;;;;;;;6.60;1.03;;;7.70;92.40;;;;;;5092230;28;20024;-75
2021/03/13 05:14:41;;;;;;;9.57;1.50;;;7.50;91.50;;;;;;5110277;28;20044;-74
2021/03/13 05:17:06;;;;;;;5.03;0.80;;;7.30;91.40;;;;;;5110170;28;20039;-74
2021/03/13 05:19:32;;;;;;;3.47;1.03;;;7.20;91.40;;;;;;5110454;28;20080;-74
2021/03/13 05:21:58;;;;;;;3.90;0.70;;;7.20;91.60;;;;;;5110376;28;20032;-77
2021/03/13 05:24:23;;;;;;;1.60;0.50;;;7.00;90.60;;;;;;5110323;28;20024;-76
2021/03/13 05:26:49;;;;;;;3.10;0.83;;;7.00;90.00;;;;;;5101469;28;20031;-76
2021/03/13 05:29:15;;;;;;;3.10;0.77;;;6.80;90.30;;;;;;5061865;28;20024;-76
2021/03/13 05:31:40;;;;;;;6.07;1.03;;;6.70;90.10;;;;;;5078268;28;20032;-77
2021/03/13 05:34:06;;;;;;;5.87;1.23;;;6.70;89.70;;;;;;5078499;28;20095;-77
2021/03/13 05:36:31;;;;;;;5.07;0.60;;;6.60;90.00;;;;;;5096536;28;20028;-77
2021/03/13 05:38:57;;;;;;;4.90;1.03;;;6.60;89.90;;;;;;5078154;28;20472;-77
2021/03/13 05:41:22;;;;;;;5.63;1.20;;;6.60;89.20;;;;;;5078706;28;20073;-77
2021/03/13 05:43:48;;;;;;;7.67;1.20;;;6.60;89.80;;;;;;5078455;28;20032;-77
2021/03/13 05:46:14;;;;;;;5.47;1.10;;;6.60;88.90;;;;;;5095253;28;20093;-76
2021/03/13 05:48:42;;;;;;;7.10;1.23;;;6.60;87.90;;;;;;5078216;28;20534;-77
2021/03/13 05:51:07;;;;;;;5.20;1.10;;;6.60;87.40;;;;;;5095532;28;20475;-76
2021/03/13 05:53:33;;;;;;;10.10;1.10;;;6.60;86.50;;;;;;5078191;28;20024;-76
2021/03/13 05:55:59;;;;;;;9.30;1.30;;;6.60;86.30;;;;;;5094921;28;20035;-76
2021/03/13 05:58:24;;;;;;;7.40;1.13;;;6.60;85.60;;;;;;5078181;28;20073;-76
2021/03/13 06:00:50;;;;;;;7.23;1.20;;;6.70;84.90;;;;;;5094991;28;20024;-76
2021/03/13 06:03:16;;;;;;;6.40;1.27;;;6.70;84.10;;;;;;5077967;28;20021;-76
2021/03/13 06:05:45;;;;;;;9.47;1.47;;;6.70;84.10;;;;;;5096011;28;20039;-76
2021/03/13 06:08:13;;;;;;;6.77;1.33;;;6.70;83.70;;;;;;5095862;28;20024;-77
2021/03/13 06:10:39;;;;;;;9.93;1.27;;;6.70;83.20;;;;;;5094561;28;20453;-78
2021/03/13 06:13:06;;;;;;;6.90;1.53;;;6.70;83.00;;;;;;5077779;28;20032;-77
2021/03/13 06:15:31;;;;;;;5.40;1.13;;;6.70;82.40;;;;;;5094077;28;20040;-77
2021/03/13 06:17:58;;;;;;;7.93;1.33;;;6.70;82.40;;;;;;5077453;28;20032;-77
2021/03/13 06:20:34;;;;;;;9.00;1.73;;;6.70;82.10;;;;;;5094661;28;20024;-77
2021/03/13 06:23:15;;;;;;;12.90;1.77;;;6.70;82.20;;;;;;5077564;28;20103;-78
2021/03/13 06:25:42;;;;;;;8.95;1.23;;;6.70;82.70;;;;;;5078156;28;20055;-77
2021/03/13 06:28:08;;;;;;;10.87;1.67;;;6.70;82.60;;;;;;5077593;28;20384;-77
2021/03/13 06:30:36;;;;;;;9.40;1.67;;;6.60;82.50;;;;;;5095708;28;20058;-77
2021/03/13 06:33:22;;;;;;;8.20;1.03;;;6.60;82.50;;;;;;5095822;28;20031;-77
2021/03/13 06:35:48;;;;;;;5.47;1.37;;;6.70;83.00;;;;;;5094941;28;20044;-78
2021/03/13 06:38:19;;;;;;;15.20;2.00;;;6.60;82.30;;;;;;5076311;28;20026;-77
2021/03/13 06:40:45;;;;;;;6.38;1.48;;;6.70;82.00;;;;;;5095333;28;20115;-77
2021/03/13 06:43:29;;;;;;;12.33;1.80;;;6.70;81.70;;;;;;5095534;28;20444;-77
2021/03/13 06:46:05;;;;;;;9.53;1.63;;;6.70;81.50;;;;;;5094816;28;20062;-77
2021/03/13 06:48:54;;;;;;;8.77;1.90;;;6.80;81.10;;;;;;5094611;28;20475;-78
2021/03/13 06:51:20;;;;;;;9.57;2.37;;;6.80;81.30;;;;;;5095517;28;20020;-77
2021/03/13 06:53:58;;;;;;;12.13;2.30;;;6.80;81.30;;;;;;5095057;28;20081;-78
2021/03/13 06:56:28;;;;;;;11.90;2.70;;;6.90;80.70;;;;;;5095134;28;20039;-77
2021/03/13 06:58:53;;;;;;;17.43;2.97;;;6.90;81.10;;;;;;5060295;28;20453;-77
2021/03/13 07:01:25;;;;;;;16.97;2.57;;;6.90;80.80;;;;;;5093876;28;20026;-77
2021/03/13 07:03:51;;;;;;;11.00;2.17;;;7.00;80.90;;;;;;5094599;28;20507;-77
2021/03/13 07:06:17;;;;;;;6.90;1.43;;;7.00;80.80;;;;;;5076717;28;20032;-77
2021/03/13 07:08:44;;;;;;;11.83;2.30;;;7.00;80.80;;;;;;5076945;28;20111;-77
2021/03/13 07:11:09;;;;;;;11.90;2.53;;;7.00;80.80;;;;;;5076966;28;20028;-75
2021/03/13 07:13:46;;;;;;;11.07;2.13;;;7.10;80.90;;;;;;5094647;28;20035;-77
2021/03/13 07:16:27;;;;;;;13.87;2.40;;;7.10;80.80;;;;;;5095220;28;20085;-75
2021/03/13 07:19:03;;;;;;;13.00;2.40;;;7.10;81.00;;;;;;5095064;28;20021;-75
2021/03/13 07:21:30;;;;;;;10.83;2.07;;;7.20;81.10;;;;;;5077140;28;20020;-75
2021/03/13 07:24:06;;;;;;;13.83;2.83;;;7.20;79.90;;;;;;5092605;28;20051;-76
2021/03/13 07:26:42;;;;;;;14.60;2.17;;;7.30;80.30;;;;;;5094066;28;20024;-75
2021/03/13 07:29:12;;;;;;;10.37;2.30;;;7.30;80.00;;;;;;5094869;28;20024;-75
2021/03/13 07:31:40;;;;;;;11.23;2.00;;;7.30;80.50;;;;;;5094773;28;20036;-75
2021/03/13 07:34:27;;;;;;;16.40;2.10;;;7.40;80.30;;;;;;5093148;28;20051;-75
2021/03/13 07:36:54;;;;;;;11.97;2.13;;;7.40;80.20;;;;;;5075482;28;20047;-76
2021/03/13 07:39:28;;;;;;;19.37;2.63;;;7.40;80.00;;;;;;5059643;28;20449;-76
2021/03/13 07:41:57;;;;;;;13.87;2.17;;;7.40;80.40;;;;;;5096809;28;20020;-80
2021/03/13 07:44:23;;;;;;;17.30;2.53;;;7.50;79.40;;;;;;5094117;28;20032;-77
2021/03/13 07:46:49;;;;;;;14.70;2.70;;;7.40;79.80;;;;;;5094548;28;20039;-77
2021/03/13 07:49:15;;;;;;;17.30;2.53;;;7.40;80.10;;;;;;5076234;28;20028;-77
2021/03/13 07:51:41;;;;;;;18.00;2.40;;;7.40;81.30;;;;;;5093315;28;20024;-77
2021/03/13 07:54:08;;;;;;;17.50;2.83;;;7.30;81.60;;;;;;5075933;28;20185;-77
2021/03/13 07:56:33;;;;;;;20.33;2.63;;;7.40;81.20;;;;;;5092928;28;20051;-78
2021/03/13 07:58:59;;;;;;;18.10;2.67;;;7.30;81.30;;;;;;5076233;28;20441;-77
2021/03/13 08:01:47;;;;;;;11.20;2.27;;;7.50;81.10;;;;;;5094026;28;20384;-77
2021/03/13 08:04:48;;;;;;;21.67;2.90;;;7.50;80.20;;;;;;5093889;28;20070;-76
2021/03/13 08:07:14;;;;;;;21.73;3.38;;;7.50;79.90;;;;;;5027703;28;20032;-76
2021/03/13 08:09:43;;;;;;;17.10;3.63;;;7.60;80.50;;;;;;5045895;28;20115;-77
2021/03/13 08:12:09;;;;;;;16.43;3.17;;;7.70;80.50;;;;;;5068832;28;20032;-76
2021/03/13 08:14:35;;;;;;;20.33;3.37;;;7.70;82.80;;;;;;5072127;28;20040;-76
2021/03/13 08:17:10;;;;;;;17.70;3.00;;;7.60;84.70;;;;;;5093285;28;20035;-77
2021/03/13 08:19:40;;;;;;;22.83;3.77;;;7.60;83.30;;;;;;5093170;28;20028;-77
2021/03/13 08:22:12;;;;;;;15.63;3.13;;;7.60;83.20;;;;;;5089120;28;21145;-77
2021/03/13 08:24:42;;;;;;;21.15;3.60;;;7.70;81.70;;;;;;5092840;28;20533;-77
2021/03/13 08:27:09;;;;;;;20.77;3.63;;;7.80;80.80;;;;;;5093644;28;20028;-77
2021/03/13 08:29:51;;;;;;;19.10;2.90;;;7.90;80.50;;;;;;5093407;28;20091;-77
2021/03/13 08:32:16;;;;;;;24.43;3.73;;;8.00;78.20;;;;;;5075526;28;20016;-76
2021/03/13 08:34:43;;;;;;;25.10;4.20;;;8.10;76.30;;;;;;5093298;28;20431;-76
2021/03/13 08:37:19;;;;;;;20.48;4.63;;;8.20;76.10;;;;;;5040147;28;20663;-81
2021/03/13 08:39:45;;;;;;;25.55;4.60;;;8.40;75.60;;;;;;5091582;28;20070;-76
2021/03/13 08:42:28;;;;;;;29.00;5.25;;;8.50;74.30;;;;;;5090238;28;20036;-76
2021/03/13 08:45:13;;;;;;;29.25;4.40;;;8.60;74.10;;;;;;5074994;28;20028;-77
2021/03/13 08:47:51;;;;;;;29.45;4.50;;;8.60;73.20;;;;;;5092012;28;20016;-76
2021/03/13 08:50:46;;;;;;;17.60;3.40;;;8.70;71.40;;;;;;5074619;28;20020;-76
2021/03/13 08:53:34;;;;;;;32.90;5.32;;;8.70;70.60;;;;;;5082138;28;20033;-76
2021/03/13 08:56:00;;;;;;;24.60;4.18;;;8.80;70.50;;;;;;5092738;28;20021;-76
2021/03/13 08:58:39;;;;;;;30.45;4.82;;;8.80;68.50;;;;;;5074960;28;20051;-77
2021/03/13 09:01:15;;;;;;;26.98;5.30;;;8.90;68.40;;;;;;5075698;28;20077;-76
2021/03/13 09:03:59;;;;;;;32.45;5.38;;;8.90;68.20;;;;;;5096615;28;20024;-75
2021/03/13 09:06:24;;;;;;;31.38;4.57;;;9.00;68.60;;;;;;5074734;28;20121;-75
2021/03/13 09:08:50;;;;;;;27.00;4.78;;;9.10;68.90;;;;;;5093332;28;20028;-75
2021/03/13 09:11:27;;;;;;;27.73;4.75;;;9.00;68.80;;;;;;5078031;28;20496;-76
2021/03/13 09:13:59;;;;;;;31.73;4.97;;;9.10;68.20;;;;;;5095943;28;20024;-75
2021/03/13 09:16:25;;;;;;;27.38;4.70;;;9.10;69.20;;;;;;5096373;28;20036;-75
2021/03/13 09:18:54;;;;;;;21.67;4.40;;;9.20;68.80;;;;;;5096617;28;20368;-75
2021/03/13 09:21:42;;;;;;;34.00;5.80;;;9.10;69.00;;;;;;5096438;28;20077;-75
2021/03/13 09:24:09;;;;;;;22.77;4.45;;;9.20;70.70;;;;;;5097143;28;20020;-76
2021/03/13 09:26:34;;;;;;;31.13;5.05;;;9.30;68.70;;;;;;5094368;28;20085;-76
2021/03/13 09:29:00;;;;;;;25.15;5.30;;;9.30;69.60;;;;;;5096072;28;20024;-76
2021/03/13 09:31:26;;;;;;;29.63;5.07;;;9.30;68.40;;;;;;5096275;28;20377;-75
2021/03/13 09:33:52;;;;;;;28.73;5.30;;;9.40;68.30;;;;;;5078354;28;20031;-75
2021/03/13 09:36:17;;;;;;;24.08;5.55;;;9.50;68.20;;;;;;5077752;28;20036;-75
2021/03/13 09:38:56;;;;;;;26.80;5.28;;;9.50;67.20;;;;;;5093668;28;20451;-75
2021/03/13 09:41:21;;;;;;;24.38;4.15;;;9.50;66.10;;;;;;5095941;28;20077;-75
2021/03/13 09:43:47;;;;;;;25.67;5.28;;;9.50;65.40;;;;;;5077928;28;20040;-75
2021/03/13 09:46:16;;;;;;;19.55;3.60;;;9.50;66.70;;;;;;5095854;28;20393;-75
2021/03/13 09:48:42;;;;;;;21.85;3.80;;;9.60;65.20;;;;;;5095992;28;20103;-75
2021/03/13 09:51:08;;;;;;;26.08;4.75;;;9.50;64.10;;;;;;5095903;28;20115;-75
2021/03/13 09:53:34;;;;;;;18.65;4.95;;;9.60;64.60;;;;;;5077948;28;20027;-75
2021/03/13 09:55:59;;;;;;;27.00;5.57;;;9.60;65.10;;;;;;5077400;28;20036;-75
2021/03/13 09:58:25;;;;;;;28.48;4.97;;;9.60;65.20;;;;;;5059296;28;20038;-75
2021/03/13 10:00:50;;;;;;;25.33;4.70;;;9.70;65.70;;;;;;5093295;28;20044;-76
2021/03/13 10:03:17;;;;;;;28.67;5.32;;;9.90;65.20;;;;;;5091254;28;20388;-75
2021/03/13 10:05:42;;;;;;;26.10;4.85;;;9.90;64.60;;;;;;5077553;28;20480;-75
2021/03/13 10:08:13;;;;;;;26.98;4.50;;;9.90;64.30;;;;;;5073865;28;20044;-75
2021/03/13 10:10:40;;;;;;;22.05;4.88;;;10.10;64.60;;;;;;5094792;28;20354;-75
2021/03/13 10:13:06;;;;;;;21.80;4.63;;;10.30;63.80;;;;;;5060702;28;20020;-76
2021/03/13 10:15:35;;;;;;;22.33;3.63;;;10.30;61.50;;;;;;5076807;28;20138;-75
2021/03/13 10:18:05;;;;;;;17.10;3.92;;;10.20;61.70;;;;;;5095439;28;20026;-74
2021/03/13 10:20:33;;;;;;;26.15;4.07;;;10.00;60.90;;;;;;5095401;28;20062;-75
2021/03/13 10:23:31;;;;;;;20.33;3.20;;;9.90;61.60;;;;;;5095318;28;20534;-75
2021/03/13 10:25:57;;;;;;;18.25;3.78;;;9.80;61.30;;;;;;5089924;28;20032;-75
2021/03/13 10:28:31;;;;;;;12.90;2.75;;;9.90;61.00;;;;;;5095582;28;20024;-75
2021/03/13 10:31:11;;;;;;;14.73;3.15;;;9.80;58.80;;;;;;5095438;28;20047;-74
2021/03/13 10:33:37;;;;;;;8.02;2.45;;;9.80;59.00;;;;;;5095387;28;20028;-74
2021/03/13 10:36:03;;;;;;;16.42;3.33;;;9.70;59.20;;;;;;5095361;28;20036;-75
2021/03/13 10:38:28;;;;;;;19.40;3.95;;;9.80;59.20;;;;;;5095538;28;20533;-75
2021/03/13 10:40:55;;;;;;;18.73;3.55;;;9.90;59.10;;;;;;5077251;28;20036;-74
2021/03/13 10:43:31;;;;;;;15.82;2.45;;;9.90;59.60;;;;;;5077190;28;20031;-74
2021/03/13 10:45:56;;;;;;;19.58;3.80;;;9.80;59.90;;;;;;5095224;28;20111;-75
2021/03/13 10:48:26;;;;;;;24.05;5.05;;;8.80;72.70;;;;;;5094871;28;20149;-75
2021/03/13 10:50:52;;;;;;;21.10;3.70;;;8.10;79.00;;;;;;5077319;28;20056;-76
2021/03/13 10:53:36;;;;;;;18.95;3.60;;;8.20;77.40;;;;;;5094884;28;20432;-75
2021/03/13 10:56:06;;;;;;;12.50;3.17;;;8.40;75.60;;;;;;5095310;28;20032;-75
2021/03/13 10:58:33;;;;;;;27.25;3.70;;;8.40;75.70;;;;;;5094937;28;20483;-76
2021/03/13 11:00:59;;;;;;;21.30;3.78;;;8.30;79.50;;;;;;5094581;28;20496;-75
2021/03/13 11:03:26;;;;;;;19.90;3.83;;;8.10;79.40;;;;;;5077424;28;20028;-76
2021/03/13 11:05:52;;;;;;;16.48;2.85;;;7.90;81.40;;;;;;5094697;28;20036;-75
2021/03/13 11:08:19;;;;;;;22.98;4.38;;;8.00;77.90;;;;;;5096374;28;20028;-76
2021/03/13 11:10:45;;;;;;;13.95;2.22;;;8.10;80.10;;;;;;5094801;28;20020;-76
2021/03/13 11:13:10;;;;;;;15.15;3.50;;;8.40;73.60;;;;;;5094694;28;20117;-75
2021/03/13 11:15:36;;;;;;;16.38;2.72;;;8.50;73.10;;;;;;5094569;28;20127;-78
2021/03/13 11:18:02;;;;;;;25.55;3.28;;;8.60;69.70;;;;;;5094381;28;20443;-75
2021/03/13 11:20:27;;;;;;;18.25;3.03;;;8.60;72.50;;;;;;5094544;28;20066;-76
2021/03/13 11:22:53;;;;;;;14.75;2.88;;;8.50;71.60;;;;;;5094484;28;20024;-76
2021/03/13 11:25:18;;;;;;;16.63;3.38;;;8.40;73.90;;;;;;5093872;28;20480;-75
2021/03/13 11:27:44;;;;;;;25.00;3.90;;;8.50;75.70;;;;;;5094792;28;20117;-76
2021/03/13 11:30:10;;;;;;;20.00;3.40;;;8.70;70.90;;;;;;5076534;28;20369;-76
2021/03/13 11:32:37;;;;;;;15.93;2.28;;;8.80;73.60;;;;;;5093999;28;20602;-76
2021/03/13 11:35:06;;;;;;;24.98;3.42;;;8.80;69.70;;;;;;5076138;28;20043;-76
2021/03/13 11:37:32;;;;;;;18.63;2.90;;;8.90;69.50;;;;;;5076039;28;20385;-76
2021/03/13 11:39:57;;;;;;;15.68;3.45;;;9.10;68.70;;;;;;5076021;28;20028;-76
2021/03/13 11:42:28;;;;;;;12.50;3.33;;;9.30;67.10;;;;;;5094140;28;20028;-76
2021/03/13 11:44:57;;;;;;;10.63;2.33;;;9.40;65.20;;;;;;5094282;28;20128;-76
2021/03/13 11:47:23;;;;;;;9.98;2.33;;;9.40;65.30;;;;;;5094376;28;20115;-75
2021/03/13 11:49:49;;;;;;;13.15;2.28;;;9.40;65.10;;;;;;5093898;28;20105;-75
2021/03/13 11:52:18;;;;;;;13.32;2.42;;;9.50;64.10;;;;;;5093743;28;20017;-75
2021/03/13 11:54:44;;;;;;;19.70;3.47;;;9.60;63.70;;;;;;5094428;28;20035;-78
2021/03/13 11:57:09;;;;;;;10.70;1.60;;;9.70;64.80;;;;;;5093788;28;20532;-76
2021/03/13 11:59:35;;;;;;;11.32;2.53;;;9.80;63.80;;;;;;5093909;28;20087;-76
2021/03/13 12:02:01;;;;;;;12.25;3.40;;;9.90;62.90;;;;;;5093840;28;20103;-76
2021/03/13 12:04:26;;;;;;;8.20;2.28;;;10.10;62.90;;;;;;5094101;28;20518;-76
2021/03/13 12:06:52;;;;;;;11.90;2.45;;;9.80;64.30;;;;;;5093928;28;20107;-77
2021/03/13 12:09:17;;;;;;;8.02;1.70;;;9.30;66.70;;;;;;5093764;28;20035;-79
2021/03/13 12:11:43;;;;;;;10.60;2.63;;;8.80;71.30;;;;;;5094199;28;20035;-80
2021/03/13 12:14:09;;;;;;;15.70;2.97;;;8.20;75.60;;;;;;5093224;28;20114;-80
2021/03/13 12:16:35;;;;;;;9.40;2.30;;;7.80;77.60;;;;;;5093999;28;20023;-81
2021/03/13 12:19:01;;;;;;;10.93;2.70;;;7.50;82.80;;;;;;5059215;28;20028;-82
2021/03/13 12:21:26;;;;;;;18.77;3.33;;;7.40;84.10;;;;;;5093745;28;20032;-80
2021/03/13 12:23:55;;;;;;;18.17;3.63;;;7.40;85.20;;;;;;5093237;28;20028;-80
2021/03/13 12:26:21;;;;;;;24.70;4.10;;;7.60;82.60;;;;;;5093795;28;20392;-79
2021/03/13 12:28:49;;;;;;;19.83;3.28;;;7.80;80.90;;;;;;5093669;28;20024;-78
2021/03/13 12:31:16;;;;;;;18.50;2.75;;;8.00;81.40;;;;;;5059387;28;20028;-78
2021/03/13 12:33:41;;;;;;;18.83;2.85;;;8.30;76.50;;;;;;5093812;28;20031;-78
2021/03/13 12:36:07;;;;;;;15.57;2.33;;;8.50;74.40;;;;;;5076545;28;20059;-78
2021/03/13 12:38:33;;;;;;;14.23;2.33;;;8.60;74.60;;;;;;5097800;28;20103;-79
2021/03/13 12:40:58;;;;;;;22.25;3.40;;;8.80;72.90;;;;;;5079493;28;20477;-79
2021/03/13 12:43:24;;;;;;;22.25;3.78;;;8.80;72.30;;;;;;5096588;28;20024;-80
2021/03/13 12:45:49;;;;;;;15.00;3.75;;;8.80;71.20;;;;;;5096435;28;20081;-79
2021/03/13 12:48:15;;;;;;;20.20;2.35;;;9.00;70.70;;;;;;5096889;28;20093;-78
2021/03/13 12:50:42;;;;;;;13.48;2.42;;;9.10;71.00;;;;;;5097102;28;20035;-78
2021/03/13 12:53:08;;;;;;;8.82;1.75;;;9.40;68.00;;;;;;5097075;28;20106;-78
2021/03/13 12:55:33;;;;;;;18.48;2.90;;;9.50;65.80;;;;;;5096107;28;20115;-79
2021/03/13 12:57:59;;;;;;;13.68;2.65;;;9.70;65.90;;;;;;5096752;28;20042;-79
2021/03/13 13:00:25;;;;;;;18.38;3.10;;;10.10;63.60;;;;;;5092948;28;20035;-79
2021/03/13 13:02:50;;;;;;;8.43;1.90;;;10.10;63.70;;;;;;5096777;28;20031;-78
2021/03/13 13:05:16;;;;;;;13.88;2.80;;;10.10;61.80;;;;;;5096520;28;20024;-78
2021/03/13 13:07:46;;;;;;;14.18;2.88;;;10.30;62.20;;;;;;5096778;28;20020;-76
2021/03/13 13:10:13;;;;;;;11.90;2.63;;;10.20;62.20;;;;;;5096678;28;20473;-77
2021/03/13 13:12:39;;;;;;;11.43;2.28;;;10.30;61.80;;;;;;5078441;28;20047;-79
2021/03/13 13:15:05;;;;;;;12.00;2.50;;;10.20;61.10;;;;;;5086085;28;20130;-78
2021/03/13 13:17:30;;;;;;;11.68;2.78;;;10.30;61.90;;;;;;5094517;28;20027;-79
2021/03/13 13:19:56;;;;;;;14.00;3.03;;;10.40;62.40;;;;;;5097099;28;20024;-77
2021/03/13 13:22:21;;;;;;;13.52;2.30;;;10.40;61.20;;;;;;5097134;28;20031;-79
2021/03/13 13:24:47;;;;;;;12.98;2.33;;;10.50;60.10;;;;;;5096027;28;20441;-79
2021/03/13 13:27:13;;;;;;;20.73;2.92;;;10.50;58.80;;;;;;5096332;28;20020;-79
2021/03/13 13:29:38;;;;;;;13.23;3.22;;;10.60;59.00;;;;;;5096234;28;20373;-78
2021/03/13 13:32:04;;;;;;;19.45;4.00;;;10.40;60.40;;;;;;5095932;28;20204;-77
2021/03/13 13:34:30;;;;;;;14.60;2.63;;;10.30;60.30;;;;;;5096148;28;20028;-78
2021/03/13 13:36:55;;;;;;;16.15;2.80;;;10.40;59.50;;;;;;5096191;28;20537;-78
2021/03/13 13:39:21;;;;;;;10.25;2.40;;;10.30;59.10;;;;;;5095910;28;20051;-79
2021/03/13 13:41:46;;;;;;;8.07;2.13;;;10.50;58.60;;;;;;5095814;28;20066;-79
2021/03/13 13:44:12;;;;;;;7.97;2.00;;;10.80;58.40;;;;;;5093459;28;20405;-78
2021/03/13 13:46:38;;;;;;;11.18;2.42;;;10.70;56.90;;;;;;5093339;28;20032;-79
2021/03/13 13:49:03;;;;;;;11.50;2.22;;;10.60;57.50;;;;;;5095267;28;20032;-79
2021/03/13 13:51:29;;;;;;;16.65;2.83;;;10.60;58.20;;;;;;5095984;28;20031;-79
2021/03/13 13:53:55;;;;;;;9.93;1.60;;;10.40;59.40;;;;;;5077466;28;20442;-79
2021/03/13 13:56:21;;;;;;;15.23;2.90;;;10.10;58.40;;;;;;5095413;28;20334;-79
2021/03/13 13:58:47;;;;;;;19.33;3.03;;;10.00;60.30;;;;;;5095380;28;20028;-78
2021/03/13 14:01:13;;;;;;;15.80;3.35;;;9.70;63.10;;;;;;5077279;28;20028;-79
2021/03/13 14:03:38;;;;;;;16.85;2.50;;;9.70;63.00;;;;;;5077586;28;20457;-80
2021/03/13 14:06:04;;;;;;;11.85;2.53;;;9.50;68.60;;;;;;5077572;28;20111;-79
2021/03/13 14:08:29;;;;;;;21.42;2.63;;;9.80;66.80;;;;;;5095618;28;20028;-79
2021/03/13 14:10:55;;;;;;;16.10;2.58;;;10.70;62.80;;;;;;5095573;28;20076;-79
2021/03/13 14:13:21;;;;;;;14.35;2.83;;;10.80;61.30;;;;;;5093945;28;20024;-85
2021/03/13 14:15:46;;;;;;;15.13;2.40;;;10.40;60.50;;;;;;5088009;28;20040;-84
2021/03/13 14:18:12;;;;;;;11.48;2.47;;;10.60;60.20;;;;;;5073395;28;20032;-78
2021/03/13 14:20:37;;;;;;;9.00;1.63;;;10.70;59.10;;;;;;5073290;28;20039;-78
2021/03/13 14:23:03;;;;;;;8.50;2.63;;;11.50;55.60;;;;;;5077237;28;20027;-78
2021/03/13 14:25:30;;;;;;;11.02;2.55;;;11.90;53.10;;;;;;5073311;28;20464;-78
2021/03/13 14:27:55;;;;;;;12.40;2.58;;;11.70;52.30;;;;;;5093245;28;20020;-78
2021/03/13 14:30:23;;;;;;;16.20;2.75;;;11.30;53.50;;;;;;5073031;28;20520;-79
2021/03/13 14:32:49;;;;;;;7.35;1.75;;;10.80;55.50;;;;;;5073303;28;20020;-78
2021/03/13 14:35:19;;;;;;;9.15;2.55;;;11.40;54.30;;;;;;5094650;28;20465;-80
2021/03/13 14:37:45;;;;;;;8.95;2.25;;;11.70;53.70;;;;;;5077227;28;20026;-78
2021/03/13 14:40:12;;;;;;;13.25;2.97;;;12.20;51.80;;;;;;5095254;28;20028;-79
2021/03/13 14:42:38;;;;;;;7.60;1.83;;;12.00;52.40;;;;;;5095069;28;20032;-79
2021/03/13 14:45:05;;;;;;;13.32;2.33;;;11.40;54.00;;;;;;5089186;28;20036;-79
2021/03/13 14:47:30;;;;;;;14.73;3.03;;;11.70;53.40;;;;;;5094006;28;20024;-79
2021/03/13 14:49:56;;;;;;;11.02;1.50;;;12.10;52.80;;;;;;5094612;28;20473;-78
2021/03/13 14:52:25;;;;;;;12.27;2.70;;;12.20;52.10;;;;;;5095269;28;20032;-77
2021/03/13 14:54:50;;;;;;;10.00;2.45;;;12.00;52.80;;;;;;5094697;28;20036;-77
2021/03/13 14:57:16;;;;;;;9.45;2.33;;;12.70;51.10;;;;;;5095125;28;20085;-78
2021/03/13 14:59:41;;;;;;;16.55;2.72;;;12.40;50.50;;;;;;5094214;28;20024;-77
2021/03/13 15:02:10;;;;;;;12.95;3.03;;;12.80;51.10;;;;;;5094834;28;20028;-77
2021/03/13 15:04:35;;;;;;;7.38;1.83;;;12.70;51.40;;;;;;5093396;28;20024;-77
2021/03/13 15:07:01;;;;;;;11.98;2.40;;;12.40;51.70;;;;;;5076074;28;20586;-77
2021/03/13 15:09:27;;;;;;;17.02;3.28;;;12.50;51.90;;;;;;5094249;28;20124;-77
2021/03/13 15:11:52;;;;;;;20.33;2.50;;;11.80;53.10;;;;;;5094349;28;20031;-77
2021/03/13 15:14:18;;;;;;;10.05;2.33;;;11.80;54.00;;;;;;5093602;28;20121;-77
2021/03/13 15:16:43;;;;;;;10.27;1.95;;;11.80;54.10;;;;;;5094596;28;20032;-77
2021/03/13 15:19:09;;;;;;;14.07;3.90;;;11.60;54.40;;;;;;5094224;28;20055;-77
2021/03/13 15:21:35;;;;;;;12.52;2.70;;;11.90;54.90;;;;;;5076491;28;20028;-77
2021/03/13 15:24:01;;;;;;;19.70;3.60;;;12.30;53.30;;;;;;5094260;28;20522;-78
2021/03/13 15:26:27;;;;;;;16.85;3.17;;;12.30;53.20;;;;;;5093960;28;20028;-77
2021/03/13 15:28:53;;;;;;;12.32;2.90;;;12.80;52.00;;;;;;5074516;28;20354;-78
2021/03/13 15:31:19;;;;;;;9.63;2.58;;;12.60;52.20;;;;;;5091469;28;20429;-70
2021/03/13 15:33:45;;;;;;;9.70;2.33;;;11.90;52.90;;;;;;5070028;28;20021;-71
2021/03/13 15:36:11;;;;;;;14.65;3.00;;;11.70;53.70;;;;;;5089091;28;20032;-85
2021/03/13 15:38:36;;;;;;;13.20;1.75;;;11.80;51.90;;;;;;5068860;28;20024;-86
2021/03/13 15:41:03;;;;;;;15.63;1.77;;;11.50;52.20;;;;;;5043106;28;20028;-86
2021/03/13 15:43:32;;;;;;;15.48;3.20;;;11.80;52.30;;;;;;5073986;28;20106;-84
2021/03/13 15:45:57;;;;;;;8.15;1.88;;;12.20;50.70;;;;;;5073874;28;20036;-84
2021/03/13 15:48:23;;;;;;;10.88;2.53;;;12.50;50.60;;;;;;5093526;28;20507;-85
2021/03/13 15:50:48;;;;;;;8.65;2.65;;;12.00;51.40;;;;;;5093673;28;20032;-84
2021/03/13 15:53:14;;;;;;;11.43;1.80;;;12.20;51.00;;;;;;5093972;28;20036;-85
2021/03/13 15:55:40;;;;;;;5.97;1.58;;;11.90;52.40;;;;;;5093804;28;20465;-85
2021/03/13 15:58:05;;;;;;;10.88;2.20;;;12.10;50.20;;;;;;5087729;28;20028;-85
2021/03/13 16:00:31;;;;;;;11.18;2.55;;;11.50;51.50;;;;;;5060480;28;20060;-86
2021/03/13 16:02:57;;;;;;;17.75;3.03;;;11.50;51.70;;;;;;5093669;28;20020;-85
2021/03/13 16:05:23;;;;;;;14.68;3.35;;;11.30;53.00;;;;;;5074860;28;20036;-84
2021/03/13 16:07:49;;;;;;;11.82;2.20;;;11.30;53.40;;;;;;5093691;28;20149;-85
2021/03/13 16:10:14;;;;;;;9.70;1.58;;;11.60;52.60;;;;;;5059408;28;20020;-84
2021/03/13 16:12:40;;;;;;;9.63;2.05;;;11.30;53.50;;;;;;5093863;28;20490;-84
2021/03/13 16:15:07;;;;;;;9.75;2.35;;;10.80;54.00;;;;;;5058882;28;20040;-85
2021/03/13 16:17:33;;;;;;;8.38;2.05;;;10.70;55.40;;;;;;5065586;28;20040;-84
2021/03/13 16:19:58;;;;;;;13.63;2.53;;;10.50;54.80;;;;;;5094069;28;20031;-84
2021/03/13 16:22:24;;;;;;;13.63;2.60;;;10.40;56.10;;;;;;5093640;28;20107;-85
2021/03/13 16:24:50;;;;;;;16.10;2.70;;;10.20;56.50;;;;;;5094308;28;20427;-84
2021/03/13 16:27:15;;;;;;;7.10;2.08;;;10.00;58.10;;;;;;5093674;28;20059;-84
2021/03/13 16:29:41;;;;;;;9.02;1.30;;;8.70;66.00;;;;;;5093623;28;20087;-86
2021/03/13 16:32:07;;;;;;;7.60;1.43;;;7.90;73.00;;;;;;5094015;28;20202;-85
2021/03/13 16:34:33;;;;;;;12.57;1.90;;;7.70;73.40;;;;;;5078094;28;20446;-85
2021/03/13 16:36:59;;;;;;;7.83;2.10;;;7.70;72.50;;;;;;5094553;28;20020;-84
2021/03/13 16:39:25;;;;;;;8.07;2.10;;;7.80;74.60;;;;;;5079688;28;20021;-85
2021/03/13 16:41:50;;;;;;;17.38;3.08;;;8.00;73.30;;;;;;5076283;28;20024;-84
2021/03/13 16:44:16;;;;;;;13.27;3.17;;;8.30;74.90;;;;;;5076079;28;20039;-84
2021/03/13 16:46:41;;;;;;;10.18;1.98;;;8.80;68.10;;;;;;5059585;28;20062;-83
2021/03/13 16:49:07;;;;;;;8.48;2.17;;;9.50;67.70;;;;;;5076765;28;20032;-83
2021/03/13 16:51:33;;;;;;;12.55;2.90;;;9.50;66.30;;;;;;5059249;28;20024;-83
2021/03/13 16:53:58;;;;;;;10.73;1.95;;;9.40;67.60;;;;;;5095120;28;20036;-83
2021/03/13 16:56:24;;;;;;;13.70;2.80;;;9.50;62.70;;;;;;5094674;28;20131;-83
2021/03/13 16:58:49;;;;;;;7.53;1.65;;;9.40;63.30;;;;;;5081432;28;20532;-83
2021/03/13 17:01:15;;;;;;;10.15;2.53;;;9.30;63.20;;;;;;5062525;28;20034;-83
2021/03/13 17:03:41;;;;;;;16.92;2.65;;;9.40;62.90;;;;;;5075878;28;20423;-83